Time;durP1;ratioP1;P1;durP2;ratioP2;P2;SDS_P1;SDS_P2;PMS_P1;PMS_P2;Temp;Humidity;BMP_temperature;BMP_pressure;BME280_temperature;BME280_humidity;BME280_pressure;Samples;Min_cycle;Max_cycle;Signal;HPM_P1;HPM_P2
2023/12/20 00:00:50;;;;;;;6.20;4.10;;;;;5.50;96124.00;;;;8338290;28;20635;-81
2023/12/20 00:04:53;;;;;;;5.93;4.47;;;;;5.50;96119.00;;;;8337378;28;20237;-82
2023/12/20 00:08:58;;;;;;;8.73;4.80;;;;;5.50;96112.00;;;;8337474;28;20205;-81
2023/12/20 00:13:02;;;;;;;7.80;4.80;;;;;5.50;96120.00;;;;8339029;28;20189;-82
2023/12/20 00:17:05;;;;;;;8.67;5.53;;;;;5.50;96133.00;;;;8337194;28;20282;-81
2023/12/20 00:21:08;;;;;;;7.93;5.10;;;;;5.50;96114.00;;;;8337445;28;20197;-81
2023/12/20 00:25:13;;;;;;;7.57;4.83;;;;;5.40;96122.00;;;;8337389;28;20582;-82
2023/12/20 00:29:16;;;;;;;8.77;4.97;;;;;5.40;96111.00;;;;8336333;28;20193;-81
2023/12/20 00:33:19;;;;;;;6.80;4.60;;;;;5.40;96112.00;;;;8336942;28;20201;-82
2023/12/20 00:37:23;;;;;;;6.93;4.80;;;;;5.40;96109.00;;;;8336004;28;20209;-81
2023/12/20 00:41:28;;;;;;;7.20;4.93;;;;;5.40;96101.00;;;;8336636;28;20653;-83
2023/12/20 00:45:31;;;;;;;10.23;5.00;;;;;5.30;96093.00;;;;8336275;28;20643;-74
2023/12/20 00:49:34;;;;;;;8.87;5.20;;;;;5.10;96099.00;;;;8335635;28;20229;-72
2023/12/20 00:53:37;;;;;;;7.93;5.37;;;;;5.00;96092.00;;;;8336613;28;20189;-73
2023/12/20 00:57:42;;;;;;;8.13;5.47;;;;;4.80;96098.00;;;;8335235;28;20193;-73
2023/12/20 01:01:45;;;;;;;9.00;5.13;;;;;4.80;96100.00;;;;8335415;28;20260;-73
2023/12/20 01:05:49;;;;;;;8.10;5.07;;;;;4.80;96106.00;;;;8335875;28;20617;-72
2023/12/20 01:09:52;;;;;;;8.33;5.23;;;;;4.70;96109.00;;;;8335685;28;20201;-72
2023/12/20 01:13:56;;;;;;;10.63;6.07;;;;;4.70;96108.00;;;;8335232;28;20197;-73
2023/12/20 01:17:59;;;;;;;6.50;4.50;;;;;4.70;96110.00;;;;8332506;28;20204;-73
2023/12/20 01:22:03;;;;;;;9.87;6.27;;;;;4.70;96108.00;;;;8335534;28;20637;-73
2023/12/20 01:26:06;;;;;;;12.30;7.17;;;;;4.70;96101.00;;;;8334984;28;20685;-72
2023/12/20 01:30:11;;;;;;;15.83;8.13;;;;;4.70;96091.00;;;;8334638;28;20228;-72
2023/12/20 01:34:14;;;;;;;11.30;7.00;;;;;4.70;96083.00;;;;8334351;28;20182;-72
2023/12/20 01:38:19;;;;;;;17.00;7.47;;;;;4.70;96070.00;;;;8334381;28;20208;-72
2023/12/20 01:42:23;;;;;;;11.10;6.90;;;;;4.80;96069.00;;;;8334283;28;20201;-72
2023/12/20 01:46:28;;;;;;;12.77;7.87;;;;;4.80;96080.00;;;;8333987;28;20279;-72
2023/12/20 01:50:32;;;;;;;15.23;7.33;;;;;4.70;96077.00;;;;8334642;28;20292;-73
2023/12/20 01:54:36;;;;;;;18.23;8.13;;;;;4.70;96076.00;;;;8334307;28;20641;-73
2023/12/20 01:58:44;;;;;;;18.70;9.53;;;;;4.80;96075.00;;;;8333545;28;20193;-73
2023/12/20 02:02:49;;;;;;;14.73;8.43;;;;;4.70;96064.00;;;;8334945;28;20220;-73
2023/12/20 02:06:54;;;;;;;16.17;8.93;;;;;4.70;96062.00;;;;8332556;28;20256;-72
2023/12/20 02:10:57;;;;;;;17.20;9.23;;;;;4.70;96060.00;;;;8333932;28;20328;-73
2023/12/20 02:15:00;;;;;;;17.37;9.27;;;;;4.70;96054.00;;;;8333173;28;20237;-72
2023/12/20 02:19:06;;;;;;;17.77;9.43;;;;;4.70;96044.00;;;;8334161;28;20295;-73
2023/12/20 02:23:10;;;;;;;20.90;10.10;;;;;4.70;96035.00;;;;8332423;28;20184;-73
2023/12/20 02:27:14;;;;;;;15.00;9.03;;;;;4.70;96036.00;;;;8332608;28;20746;-72
2023/12/20 02:31:17;;;;;;;20.10;9.20;;;;;4.70;96037.00;;;;8332781;28;20602;-72
2023/12/20 02:35:20;;;;;;;18.90;9.40;;;;;4.70;96021.00;;;;8333082;28;20207;-72
2023/12/20 02:39:25;;;;;;;17.53;9.30;;;;;4.70;96022.00;;;;8332698;28;20194;-71
2023/12/20 02:43:28;;;;;;;14.73;8.67;;;;;4.70;96023.00;;;;8331759;28;20669;-72
2023/12/20 02:47:31;;;;;;;18.77;8.77;;;;;4.70;96025.00;;;;8332082;28;20312;-71
2023/12/20 02:51:34;;;;;;;15.57;8.50;;;;;4.70;96026.00;;;;8332083;28;20189;-72
2023/12/20 02:55:38;;;;;;;16.43;8.40;;;;;4.70;96024.00;;;;8332584;28;20201;-72
2023/12/20 02:59:42;;;;;;;15.13;8.87;;;;;4.80;96020.00;;;;8333005;28;20565;-72
2023/12/20 03:03:45;;;;;;;19.57;9.17;;;;;4.80;96017.00;;;;8334004;22;20232;-71
2023/12/20 03:07:48;;;;;;;16.87;8.73;;;;;4.80;96001.00;;;;8310095;28;20344;-71
2023/12/20 03:11:52;;;;;;;17.03;8.33;;;;;4.80;96013.00;;;;8316280;28;20197;-71
2023/12/20 03:15:55;;;;;;;22.90;8.33;;;;;4.90;96008.00;;;;8314614;28;20215;-70
2023/12/20 03:19:58;;;;;;;16.33;8.37;;;;;4.90;96010.00;;;;8314078;28;20216;-70
2023/12/20 03:24:02;;;;;;;16.20;8.23;;;;;4.90;96015.00;;;;8313530;28;20228;-70
2023/12/20 03:28:06;;;;;;;16.63;8.20;;;;;4.90;96002.00;;;;8314534;28;20280;-72
2023/12/20 03:32:10;;;;;;;15.27;8.37;;;;;4.90;96004.00;;;;8319327;28;20327;-70
2023/12/20 03:36:13;;;;;;;18.57;8.93;;;;;4.90;96019.00;;;;8314440;28;20873;-69
2023/12/20 03:40:16;;;;;;;14.57;8.17;;;;;4.90;96010.00;;;;8312614;28;20280;-70
2023/12/20 03:44:21;;;;;;;17.73;8.00;;;;;5.00;96014.00;;;;8316572;28;20205;-70
2023/12/20 03:48:24;;;;;;;14.47;8.27;;;;;4.90;96019.00;;;;8316235;28;20251;-71
2023/12/20 03:52:27;;;;;;;15.00;7.87;;;;;4.90;96019.00;;;;8307594;28;20213;-70
2023/12/20 03:56:31;;;;;;;15.33;7.80;;;;;4.90;96016.00;;;;8314600;28;20219;-70
2023/12/20 04:00:35;;;;;;;15.83;8.00;;;;;4.90;96015.00;;;;8313483;28;20953;-69
2023/12/20 04:04:38;;;;;;;11.83;7.00;;;;;4.90;96015.00;;;;8312745;28;20233;-70
2023/12/20 04:08:42;;;;;;;12.97;6.20;;;;;4.90;96012.00;;;;8311963;28;20209;-70
2023/12/20 04:12:45;;;;;;;13.43;6.90;;;;;4.90;96019.00;;;;8316922;28;20987;-71
2023/12/20 04:16:49;;;;;;;13.73;6.87;;;;;4.90;96016.00;;;;8316451;28;20858;-70
2023/12/20 04:20:52;;;;;;;13.43;6.97;;;;;4.90;96014.00;;;;8311693;28;20683;-70
2023/12/20 04:24:55;;;;;;;11.77;6.33;;;;;4.90;96016.00;;;;8311603;28;20316;-69
2023/12/20 04:28:59;;;;;;;16.53;6.70;;;;;4.90;96023.00;;;;8318945;28;20209;-69
2023/12/20 04:33:03;;;;;;;6.57;3.73;;;;;4.90;96019.00;;;;8314434;28;20304;-68
2023/12/20 04:37:07;;;;;;;9.40;5.10;;;;;4.90;96034.00;;;;8318651;28;20464;-68
2023/12/20 04:41:10;;;;;;;8.43;4.20;;;;;4.90;96024.00;;;;8316673;28;20212;-69
2023/12/20 04:45:15;;;;;;;6.63;4.23;;;;;4.90;96018.00;;;;8314777;28;20351;-69
2023/12/20 04:49:20;;;;;;;6.23;3.93;;;;;4.90;96019.00;;;;8315778;28;20205;-69
2023/12/20 04:53:23;;;;;;;6.50;4.33;;;;;4.90;96019.00;;;;8318184;28;20208;-70
2023/12/20 04:57:26;;;;;;;7.40;4.07;;;;;4.90;96018.00;;;;8315130;28;20578;-75
2023/12/20 05:01:29;;;;;;;11.63;4.30;;;;;4.90;96014.00;;;;8319591;28;21312;-73
2023/12/20 05:05:34;;;;;;;7.23;4.10;;;;;4.90;96001.00;;;;8321564;28;20227;-72
2023/12/20 05:09:37;;;;;;;5.37;3.87;;;;;5.00;96027.00;;;;8317910;28;20201;-73
2023/12/20 05:13:41;;;;;;;6.60;3.80;;;;;5.00;96013.00;;;;8325304;28;20294;-74
2023/12/20 05:17:52;;;;;;;6.77;3.63;;;;;5.00;96019.00;;;;8320962;28;20758;-72
2023/12/20 05:21:56;;;;;;;4.13;3.33;;;;;5.00;96016.00;;;;8320871;28;20196;-72
2023/12/20 05:26:00;;;;;;;2.47;2.27;;;;;5.10;96028.00;;;;8316837;28;20229;-74
2023/12/20 05:30:04;;;;;;;4.20;2.87;;;;;5.00;96031.00;;;;8316994;28;20284;-74
2023/12/20 05:34:08;;;;;;;3.50;2.83;;;;;5.00;96027.00;;;;8315542;28;20309;-72
2023/12/20 05:38:12;;;;;;;3.67;2.23;;;;;5.10;96039.00;;;;8318763;28;20823;-73
2023/12/20 05:42:16;;;;;;;5.07;2.20;;;;;5.10;96054.00;;;;8314543;28;20280;-74
2023/12/20 05:46:19;;;;;;;2.53;1.87;;;;;5.10;96064.00;;;;8317159;28;21651;-73
2023/12/20 05:50:22;;;;;;;2.57;1.70;;;;;5.10;96065.00;;;;8321142;28;20200;-73
2023/12/20 05:54:27;;;;;;;1.90;1.80;;;;;5.00;96070.00;;;;8317131;28;20308;-74
2023/12/20 05:58:30;;;;;;;2.27;1.80;;;;;5.00;96073.00;;;;8313009;28;20284;-75
2023/12/20 06:02:33;;;;;;;2.40;1.60;;;;;5.00;96091.00;;;;8319548;28;20236;-74
2023/12/20 06:06:43;;;;;;;1.93;1.70;;;;;5.10;96074.00;;;;8316796;28;20315;-74
2023/12/20 06:10:47;;;;;;;2.00;1.70;;;;;5.10;96074.00;;;;8315435;28;20284;-74
2023/12/20 06:14:51;;;;;;;2.60;1.77;;;;;5.10;96082.00;;;;8311301;28;20197;-74
2023/12/20 06:18:54;;;;;;;1.90;1.60;;;;;5.10;96072.00;;;;8303062;28;20899;-78
2023/12/20 06:22:57;;;;;;;2.80;1.70;;;;;5.10;96086.00;;;;8313183;28;20251;-74
2023/12/20 06:27:02;;;;;;;1.87;1.40;;;;;5.00;96092.00;;;;8313569;28;20327;-77
2023/12/20 06:31:06;;;;;;;2.17;1.60;;;;;5.00;96106.00;;;;8312696;28;20284;-77
2023/12/20 06:35:09;;;;;;;2.80;1.40;;;;;5.00;96109.00;;;;8315883;28;20197;-79
2023/12/20 06:39:13;;;;;;;1.07;1.07;;;;;5.00;96096.00;;;;8310992;28;20193;-78
2023/12/20 06:43:18;;;;;;;1.27;1.20;;;;;5.00;96104.00;;;;8311307;28;20721;-79
2023/12/20 06:47:41;;;;;;;1.30;1.30;;;;;5.00;96104.00;;;;8311158;28;20233;-79
2023/12/20 06:51:45;;;;;;;1.23;1.17;;;;;5.00;96120.00;;;;8313293;28;20223;-79
2023/12/20 06:55:49;;;;;;;1.73;1.27;;;;;5.10;96135.00;;;;8312151;28;20236;-76
2023/12/20 06:59:53;;;;;;;1.70;1.33;;;;;5.00;96130.00;;;;8309138;28;20206;-78
2023/12/20 07:03:56;;;;;;;1.40;1.30;;;;;5.00;96131.00;;;;8311409;28;20233;-78
2023/12/20 07:08:00;;;;;;;1.17;1.17;;;;;5.00;96140.00;;;;8312760;28;20233;-78
2023/12/20 07:12:03;;;;;;;1.20;1.20;;;;;5.00;96146.00;;;;8311219;28;20275;-77
2023/12/20 07:16:08;;;;;;;0.97;0.90;;;;;4.90;96143.00;;;;8309776;28;20308;-77
2023/12/20 07:20:12;;;;;;;1.50;1.40;;;;;4.90;96152.00;;;;8313940;28;20754;-77
2023/12/20 07:24:15;;;;;;;1.40;1.27;;;;;5.00;96146.00;;;;8314172;28;20630;-78
2023/12/20 07:28:18;;;;;;;1.30;1.30;;;;;5.00;96152.00;;;;8309424;28;20315;-78
2023/12/20 07:32:23;;;;;;;1.50;1.40;;;;;5.00;96156.00;;;;8310530;28;20212;-78
2023/12/20 07:36:26;;;;;;;1.90;1.50;;;;;5.00;96184.00;;;;8312194;28;20301;-78
2023/12/20 07:40:29;;;;;;;1.43;1.33;;;;;5.00;96186.00;;;;8312852;28;20292;-77
2023/12/20 07:44:32;;;;;;;2.40;1.93;;;;;5.00;96191.00;;;;8311896;28;20244;-77
2023/12/20 07:48:37;;;;;;;2.10;1.83;;;;;5.00;96186.00;;;;8313901;28;20224;-77
2023/12/20 07:52:40;;;;;;;1.93;1.70;;;;;5.00;96199.00;;;;8312881;28;20201;-77
2023/12/20 07:56:43;;;;;;;3.57;2.17;;;;;5.10;96206.00;;;;8312169;28;20208;-77
2023/12/20 08:00:46;;;;;;;1.57;1.47;;;;;5.10;96208.00;;;;8312860;28;20205;-76
2023/12/20 08:04:51;;;;;;;1.83;1.73;;;;;5.10;96203.00;;;;8330547;28;20224;-77
2023/12/20 08:08:54;;;;;;;2.53;2.27;;;;;5.10;96207.00;;;;8337403;28;20220;-77
2023/12/20 08:13:08;;;;;;;2.43;1.83;;;;;5.10;96207.00;;;;8337195;28;20182;-77
2023/12/20 08:17:12;;;;;;;2.43;2.20;;;;;5.10;96222.00;;;;8336671;28;20280;-76
2023/12/20 08:21:19;;;;;;;4.17;2.20;;;;;5.10;96218.00;;;;8337436;28;20208;-77
2023/12/20 08:25:22;;;;;;;104.67;9.03;;;;;5.10;96217.00;;;;8336699;28;20189;-76
2023/12/20 08:29:26;;;;;;;3.00;2.10;;;;;5.20;96219.00;;;;8337640;28;20666;-74
2023/12/20 08:33:29;;;;;;;2.50;1.97;;;;;5.20;96229.00;;;;8336894;28;20204;-74
2023/12/20 08:37:35;;;;;;;2.20;2.00;;;;;5.20;96218.00;;;;8335987;28;20247;-74
2023/12/20 08:41:39;;;;;;;3.27;2.00;;;;;5.30;96227.00;;;;8336904;28;20216;-74
2023/12/20 08:45:42;;;;;;;1.93;1.73;;;;;5.30;96212.00;;;;8336762;28;20196;-74
2023/12/20 08:49:46;;;;;;;4.20;2.30;;;;;5.40;96206.00;;;;8335975;28;20259;-73
2023/12/20 08:53:51;;;;;;;2.03;1.80;;;;;5.40;96218.00;;;;8336777;28;20206;-74
2023/12/20 08:57:54;;;;;;;1.90;1.80;;;;;5.50;96221.00;;;;8337078;28;20538;-74
2023/12/20 09:01:58;;;;;;;2.80;1.97;;;;;5.50;96223.00;;;;8343588;28;20225;-75
2023/12/20 09:06:02;;;;;;;3.30;2.30;;;;;5.60;96212.00;;;;8369890;28;20219;-76
2023/12/20 09:10:08;;;;;;;2.43;2.23;;;;;5.60;96208.00;;;;8368357;28;20228;-77
2023/12/20 09:14:11;;;;;;;3.40;2.80;;;;;5.60;96208.00;;;;8368900;28;20220;-78
2023/12/20 09:18:15;;;;;;;5.03;3.20;;;;;5.70;96209.00;;;;8367416;28;20630;-76
2023/12/20 09:22:18;;;;;;;6.97;3.90;;;;;5.70;96205.00;;;;8367779;28;20200;-78
2023/12/20 09:26:23;;;;;;;8.07;4.07;;;;;5.70;96212.00;;;;8367563;28;20215;-78
2023/12/20 09:30:26;;;;;;;6.97;3.47;;;;;5.70;96221.00;;;;8368148;28;20279;-79
2023/12/20 09:34:30;;;;;;;6.87;3.77;;;;;5.80;96232.00;;;;8366874;28;20276;-80
2023/12/20 09:38:34;;;;;;;6.33;3.80;;;;;5.90;96213.00;;;;8368067;28;20546;-79
2023/12/20 09:42:44;;;;;;;7.80;4.47;;;;;5.90;96227.00;;;;8368409;28;20259;-75
2023/12/20 09:46:51;;;;;;;11.73;5.33;;;;;6.00;96219.00;;;;8366942;28;20208;-80
2023/12/20 09:50:54;;;;;;;10.87;4.30;;;;;6.00;96221.00;;;;8367574;28;20621;-80
2023/12/20 09:54:58;;;;;;;8.20;4.43;;;;;6.00;96231.00;;;;8367312;28;20200;-80
2023/12/20 09:59:03;;;;;;;8.67;3.57;;;;;6.00;96215.00;;;;8367354;28;20700;-79
2023/12/20 10:03:07;;;;;;;9.67;4.43;;;;;6.00;96209.00;;;;8367294;28;20677;-80
2023/12/20 10:07:11;;;;;;;7.03;3.40;;;;;6.00;96198.00;;;;8367948;28;20549;-80
2023/12/20 10:11:15;;;;;;;5.20;3.60;;;;;6.10;96188.00;;;;8368069;28;20193;-80
2023/12/20 10:15:20;;;;;;;4.57;3.37;;;;;6.10;96194.00;;;;8366786;28;20197;-80
2023/12/20 10:19:24;;;;;;;7.03;3.57;;;;;6.20;96200.00;;;;8366139;28;20186;-80
2023/12/20 10:23:28;;;;;;;4.03;2.90;;;;;6.20;96187.00;;;;8366873;28;20288;-81
2023/12/20 10:27:31;;;;;;;4.47;2.80;;;;;6.20;96194.00;;;;8365807;28;20285;-81
2023/12/20 10:31:38;;;;;;;7.73;4.17;;;;;6.40;96187.00;;;;8344031;28;20263;-81
2023/12/20 10:35:42;;;;;;;8.03;4.00;;;;;6.40;96196.00;;;;8333541;28;20627;-81
2023/12/20 10:39:52;;;;;;;4.13;3.13;;;;;6.40;96193.00;;;;8333275;28;20221;-81
2023/12/20 10:44:00;;;;;;;6.57;4.13;;;;;6.40;96205.00;;;;8333033;28;20235;-82
2023/12/20 10:48:06;;;;;;;7.60;3.97;;;;;6.50;96195.00;;;;8331772;28;20240;-80
2023/12/20 10:52:12;;;;;;;7.60;4.30;;;;;6.60;96202.00;;;;8333388;28;20186;-82
2023/12/20 10:56:17;;;;;;;7.23;3.73;;;;;6.60;96191.00;;;;8332281;28;20520;-81
2023/12/20 11:00:23;;;;;;;5.53;3.80;;;;;6.50;96194.00;;;;8331830;28;20181;-79
2023/12/20 11:04:37;;;;;;;9.90;3.67;;;;;6.40;96191.00;;;;8331931;28;20228;-79
2023/12/20 11:08:46;;;;;;;7.30;3.63;;;;;6.30;96196.00;;;;8331641;28;20256;-79
2023/12/20 11:12:58;;;;;;;6.53;3.30;;;;;6.30;96201.00;;;;8332313;28;20598;-79
2023/12/20 11:17:08;;;;;;;8.23;3.60;;;;;6.40;96188.00;;;;8331545;28;20239;-79
2023/12/20 11:21:14;;;;;;;3.90;2.97;;;;;6.30;96187.00;;;;8332478;28;20591;-80
2023/12/20 11:25:18;;;;;;;9.47;3.27;;;;;6.40;96183.00;;;;8333329;28;20185;-80
2023/12/20 11:29:32;;;;;;;5.67;3.03;;;;;6.40;96174.00;;;;8331526;28;20255;-81
2023/12/20 11:33:38;;;;;;;7.47;2.97;;;;;6.40;96166.00;;;;8331130;28;20201;-81
2023/12/20 11:37:43;;;;;;;13.10;3.17;;;;;6.60;96163.00;;;;8330940;28;20197;-80
2023/12/20 11:41:50;;;;;;;7.57;2.90;;;;;6.80;96173.00;;;;8330976;28;20182;-81
2023/12/20 11:45:53;;;;;;;5.50;2.40;;;;;6.70;96174.00;;;;8329583;28;20178;-80
2023/12/20 11:49:57;;;;;;;13.27;6.30;;;;;6.90;96167.00;;;;8329075;28;20272;-75
2023/12/20 11:54:02;;;;;;;13.03;2.83;;;;;7.00;96151.00;;;;8330606;28;20193;-81
2023/12/20 11:58:05;;;;;;;6.33;2.10;;;;;7.10;96141.00;;;;8331541;28;20491;-80
2023/12/20 12:02:09;;;;;;;6.47;2.27;;;;;7.00;96147.00;;;;8331198;28;20551;-81
2023/12/20 12:06:13;;;;;;;3.60;2.40;;;;;6.90;96134.00;;;;8330683;28;20193;-79
2023/12/20 12:10:17;;;;;;;6.30;2.53;;;;;6.80;96133.00;;;;8331155;28;20224;-79
2023/12/20 12:14:21;;;;;;;8.60;2.33;;;;;6.70;96128.00;;;;8331244;28;20634;-79
2023/12/20 12:18:24;;;;;;;5.30;2.83;;;;;6.50;96146.00;;;;8330602;28;20205;-79
2023/12/20 12:22:27;;;;;;;5.23;2.10;;;;;6.50;96142.00;;;;8331021;28;20197;-81
2023/12/20 12:26:33;;;;;;;5.40;2.80;;;;;6.50;96143.00;;;;8331244;28;20193;-79
2023/12/20 12:30:36;;;;;;;5.77;2.20;;;;;6.60;96154.00;;;;8329439;28;20666;-80
2023/12/20 12:34:48;;;;;;;7.43;2.27;;;;;6.70;96155.00;;;;8331600;28;20201;-79
2023/12/20 12:38:51;;;;;;;4.70;1.60;;;;;6.70;96136.00;;;;8331011;28;20280;-79
2023/12/20 12:42:56;;;;;;;2.47;1.67;;;;;6.60;96128.00;;;;8330159;28;20539;-79
2023/12/20 12:46:59;;;;;;;3.77;1.97;;;;;6.40;96127.00;;;;8331211;28;20285;-80
2023/12/20 12:51:03;;;;;;;3.17;2.20;;;;;6.30;96138.00;;;;8333052;28;20274;-80
2023/12/20 12:55:07;;;;;;;2.83;2.20;;;;;6.10;96114.00;;;;8336086;28;20638;-81
2023/12/20 12:59:11;;;;;;;3.87;2.13;;;;;6.10;96123.00;;;;8336518;28;20662;-80
2023/12/20 13:03:15;;;;;;;3.00;2.00;;;;;6.30;96141.00;;;;8336547;28;20225;-80
2023/12/20 13:07:18;;;;;;;4.70;1.93;;;;;6.50;96130.00;;;;8336572;28;20208;-79
2023/12/20 13:11:21;;;;;;;2.90;1.93;;;;;6.60;96134.00;;;;8336342;28;20667;-79
2023/12/20 13:15:26;;;;;;;4.53;2.00;;;;;6.50;96125.00;;;;8335543;28;20689;-80
2023/12/20 13:19:30;;;;;;;9.17;2.20;;;;;6.40;96135.00;;;;8335970;28;20689;-79
2023/12/20 13:23:33;;;;;;;7.30;2.37;;;;;6.40;96136.00;;;;8335461;28;20194;-80
2023/12/20 13:27:40;;;;;;;5.73;2.10;;;;;6.40;96141.00;;;;8335238;28;20188;-79
2023/12/20 13:31:44;;;;;;;3.63;1.83;;;;;6.40;96153.00;;;;8334330;28;20232;-80
2023/12/20 13:35:48;;;;;;;1.53;1.43;;;;;6.20;96141.00;;;;8331826;28;20523;-78
2023/12/20 13:39:51;;;;;;;2.43;1.73;;;;;6.00;96144.00;;;;8332910;28;20204;-78
2023/12/20 13:43:55;;;;;;;8.13;3.87;;;;;5.80;96136.00;;;;8333551;28;20244;-79
2023/12/20 13:47:59;;;;;;;7.07;3.73;;;;;5.80;96137.00;;;;8330731;28;20182;-79
2023/12/20 13:52:04;;;;;;;36.57;16.03;;;;;5.80;96139.00;;;;8333409;28;20224;-76
2023/12/20 13:56:07;;;;;;;58.83;24.87;;;;;5.80;96139.00;;;;8331673;28;20233;-78
2023/12/20 14:00:14;;;;;;;365.87;159.17;;;;;5.70;96140.00;;;;8334578;28;20237;-78
2023/12/20 14:04:19;;;;;;;6.47;4.93;;;;;5.80;96151.00;;;;8332789;28;20709;-79
2023/12/20 14:08:42;;;;;;;8.47;2.93;;;;;5.90;96153.00;;;;8333875;28;20221;-78
2023/12/20 14:12:46;;;;;;;9.63;7.43;;;;;6.00;96151.00;;;;8333924;28;20594;-78
2023/12/20 14:16:49;;;;;;;16.43;6.00;;;;;6.00;96161.00;;;;8334302;28;20530;-79
2023/12/20 14:20:55;;;;;;;5.17;3.63;;;;;6.00;96157.00;;;;8333732;28;20198;-79
2023/12/20 14:24:58;;;;;;;6.13;3.10;;;;;5.90;96152.00;;;;8333039;28;20185;-78
2023/12/20 14:29:01;;;;;;;4.30;2.40;;;;;5.80;96152.00;;;;8333203;28;20632;-76
2023/12/20 14:33:06;;;;;;;4.93;2.57;;;;;5.80;96149.00;;;;8333443;28;20193;-79
2023/12/20 14:37:10;;;;;;;5.57;2.87;;;;;5.80;96132.00;;;;8332474;28;20254;-78
2023/12/20 14:41:14;;;;;;;4.97;2.17;;;;;5.80;96134.00;;;;8332270;28;20216;-79
2023/12/20 14:45:17;;;;;;;16.90;13.80;;;;;5.80;96125.00;;;;8332363;28;20196;-78
2023/12/20 14:49:21;;;;;;;6.60;3.70;;;;;5.80;96132.00;;;;8332788;28;20217;-78
2023/12/20 14:53:26;;;;;;;4.20;3.80;;;;;5.80;96136.00;;;;8332207;28;20186;-78
2023/12/20 14:57:29;;;;;;;6.20;3.27;;;;;5.80;96129.00;;;;8332567;28;20197;-78
2023/12/20 15:01:33;;;;;;;8.67;4.80;;;;;5.70;96120.00;;;;8332517;28;20221;-78
2023/12/20 15:05:36;;;;;;;7.20;5.10;;;;;5.50;96123.00;;;;8332520;28;20197;-78
2023/12/20 15:09:45;;;;;;;10.47;2.63;;;;;5.50;96109.00;;;;8332186;28;20221;-79
2023/12/20 15:13:54;;;;;;;7.93;4.30;;;;;5.40;96109.00;;;;8331650;28;20185;-79
2023/12/20 15:18:01;;;;;;;5.13;2.43;;;;;5.30;96111.00;;;;8332651;28;20522;-79
2023/12/20 15:22:06;;;;;;;5.17;2.10;;;;;5.20;96106.00;;;;8333918;28;20228;-79
2023/12/20 15:26:11;;;;;;;5.93;2.10;;;;;5.20;96112.00;;;;8332093;28;20205;-80
2023/12/20 15:30:14;;;;;;;4.53;2.23;;;;;5.20;96090.00;;;;8332095;28;20221;-79
2023/12/20 15:34:18;;;;;;;8.67;2.63;;;;;5.20;96101.00;;;;8332381;28;20194;-78
2023/12/20 15:38:21;;;;;;;5.73;2.30;;;;;5.10;96106.00;;;;8331888;28;20193;-81
2023/12/20 15:42:26;;;;;;;6.67;2.57;;;;;5.10;96097.00;;;;8331342;28;20198;-80
2023/12/20 15:46:29;;;;;;;3.23;2.50;;;;;5.10;96099.00;;;;8332089;28;20250;-80
2023/12/20 15:50:32;;;;;;;5.13;2.87;;;;;5.10;96117.00;;;;8331908;28;20252;-81
2023/12/20 15:54:38;;;;;;;6.03;2.47;;;;;5.10;96123.00;;;;8331247;28;20626;-81
2023/12/20 15:58:43;;;;;;;10.20;3.03;;;;;5.10;96113.00;;;;8331545;28;20182;-81
2023/12/20 16:02:46;;;;;;;9.60;2.60;;;;;5.10;96102.00;;;;8331585;28;20225;-84
2023/12/20 16:06:50;;;;;;;4.73;3.10;;;;;5.10;96118.00;;;;8331664;28;20193;-85
2023/12/20 16:10:53;;;;;;;3.67;2.37;;;;;5.20;96117.00;;;;8331304;28;20279;-84
2023/12/20 16:14:57;;;;;;;8.97;2.63;;;;;5.20;96124.00;;;;8331911;28;20205;-86
2023/12/20 16:19:00;;;;;;;8.83;3.20;;;;;5.20;96115.00;;;;8332073;28;20638;-86
2023/12/20 16:23:04;;;;;;;4.33;2.40;;;;;5.20;96113.00;;;;8331535;28;20197;-86
2023/12/20 16:27:07;;;;;;;8.13;2.80;;;;;5.20;96118.00;;;;8336888;28;20197;-86
2023/12/20 16:31:12;;;;;;;7.93;3.03;;;;;5.20;96114.00;;;;8337747;28;20240;-85
2023/12/20 16:35:15;;;;;;;4.00;2.33;;;;;5.20;96122.00;;;;8336962;28;20197;-85
2023/12/20 16:39:19;;;;;;;4.80;2.67;;;;;5.20;96112.00;;;;8338428;28;20200;-86
2023/12/20 16:43:26;;;;;;;4.73;2.40;;;;;5.20;96105.00;;;;8338724;28;20703;-83
2023/12/20 16:47:30;;;;;;;7.07;3.00;;;;;5.20;96099.00;;;;8339157;28;20193;-87
2023/12/20 16:51:33;;;;;;;9.40;2.97;;;;;5.20;96089.00;;;;8337136;28;20271;-86
2023/12/20 16:55:37;;;;;;;7.77;2.90;;;;;5.20;96095.00;;;;8337173;28;20240;-85
2023/12/20 16:59:43;;;;;;;5.77;2.70;;;;;5.20;96060.00;;;;8337728;28;20288;-86
2023/12/20 17:03:47;;;;;;;5.17;2.10;;;;;5.20;96078.00;;;;8336932;28;20266;-86
2023/12/20 17:07:50;;;;;;;4.20;3.13;;;;;5.30;96072.00;;;;8336779;28;20193;-86
2023/12/20 17:11:54;;;;;;;3.27;1.90;;;;;5.30;96075.00;;;;8335963;28;20221;-86
2023/12/20 17:15:57;;;;;;;6.17;2.10;;;;;5.30;96074.00;;;;8337116;28;20262;-87
2023/12/20 17:20:01;;;;;;;7.03;2.20;;;;;5.30;96084.00;;;;8336473;28;20197;-86
2023/12/20 17:24:05;;;;;;;4.43;2.23;;;;;5.30;96104.00;;;;8336343;28;20236;-86
2023/12/20 17:28:12;;;;;;;4.00;2.30;;;;;5.40;96113.00;;;;8336875;28;20193;-86
2023/12/20 17:32:16;;;;;;;5.83;2.63;;;;;5.40;96113.00;;;;8335464;28;20311;-86
2023/12/20 17:36:20;;;;;;;7.93;2.30;;;;;5.40;96117.00;;;;8335031;28;20647;-85
2023/12/20 17:40:23;;;;;;;8.13;2.40;;;;;5.40;96134.00;;;;8335206;28;20413;-85
2023/12/20 17:44:26;;;;;;;8.27;2.67;;;;;5.50;96147.00;;;;8335759;28;20250;-85
2023/12/20 17:48:30;;;;;;;7.20;2.90;;;;;5.50;96139.00;;;;8335118;28;20236;-83
2023/12/20 17:52:34;;;;;;;3.47;2.47;;;;;5.50;96125.00;;;;8335048;28;20312;-83
2023/12/20 17:56:37;;;;;;;2.83;2.50;;;;;5.50;96145.00;;;;8334704;28;20204;-84
2023/12/20 18:00:41;;;;;;;10.40;2.33;;;;;5.50;96148.00;;;;8335806;28;20193;-84
2023/12/20 18:04:44;;;;;;;10.30;2.60;;;;;5.50;96144.00;;;;8335131;28;20264;-85
2023/12/20 18:08:48;;;;;;;4.30;2.10;;;;;5.50;96142.00;;;;8334744;28;20201;-86
2023/12/20 18:12:52;;;;;;;6.53;2.60;;;;;5.50;96147.00;;;;8334774;28;20217;-87
2023/12/20 18:16:55;;;;;;;6.20;2.30;;;;;5.50;96155.00;;;;8334756;28;20193;-84
2023/12/20 18:20:58;;;;;;;3.53;2.10;;;;;5.50;96163.00;;;;8334716;28;20204;-85
2023/12/20 18:25:04;;;;;;;3.23;2.20;;;;;5.60;96162.00;;;;8333994;28;20200;-85
2023/12/20 18:29:07;;;;;;;6.83;2.63;;;;;5.60;96165.00;;;;8333854;28;20193;-85
2023/12/20 18:33:10;;;;;;;5.17;2.50;;;;;5.60;96157.00;;;;8333867;28;20283;-84
2023/12/20 18:37:13;;;;;;;4.43;2.23;;;;;5.60;96163.00;;;;8334227;28;20190;-86
2023/12/20 18:41:18;;;;;;;4.77;2.20;;;;;5.60;96152.00;;;;8333341;28;20204;-85
2023/12/20 18:45:21;;;;;;;9.73;2.50;;;;;5.60;96154.00;;;;8334142;28;20605;-86
2023/12/20 18:49:25;;;;;;;6.27;2.50;;;;;5.50;96145.00;;;;8333249;28;20198;-86
2023/12/20 18:53:28;;;;;;;2.53;2.20;;;;;5.50;96160.00;;;;8333390;28;20233;-86
2023/12/20 18:57:33;;;;;;;8.13;2.30;;;;;5.60;96155.00;;;;8333276;28;20670;-86
2023/12/20 19:01:36;;;;;;;3.77;2.00;;;;;5.50;96150.00;;;;8330025;28;20681;-86
2023/12/20 19:05:39;;;;;;;6.83;2.90;;;;;5.40;96165.00;;;;8332675;28;20181;-83
2023/12/20 19:09:42;;;;;;;4.87;2.10;;;;;5.40;96172.00;;;;8332399;28;20678;-83
2023/12/20 19:13:47;;;;;;;10.00;2.83;;;;;5.30;96160.00;;;;8332430;28;20221;-82
2023/12/20 19:17:50;;;;;;;7.23;2.60;;;;;5.20;96160.00;;;;8332142;28;20194;-80
2023/12/20 19:21:53;;;;;;;8.07;2.03;;;;;5.10;96162.00;;;;8332915;28;20631;-78
2023/12/20 19:25:57;;;;;;;5.43;2.47;;;;;5.00;96150.00;;;;8331880;28;20197;-74
2023/12/20 19:30:02;;;;;;;6.95;2.65;;;;;4.90;96151.00;;;;8332299;28;20194;-74
2023/12/20 19:34:05;;;;;;;3.50;2.50;;;;;4.90;96143.00;;;;8332009;28;20642;-74
2023/12/20 19:38:08;;;;;;;5.17;2.20;;;;;4.80;96140.00;;;;8328820;28;20197;-74
2023/12/20 19:42:12;;;;;;;9.30;2.60;;;;;4.80;96140.00;;;;8330882;28;20603;-77
2023/12/20 19:46:16;;;;;;;3.50;2.30;;;;;4.80;96135.00;;;;8328971;28;20239;-76
2023/12/20 19:50:20;;;;;;;7.50;2.70;;;;;4.80;96134.00;;;;8330728;28;20542;-76
2023/12/20 19:54:23;;;;;;;4.27;2.00;;;;;4.70;96129.00;;;;8329581;28;20657;-76
2023/12/20 19:58:27;;;;;;;10.20;2.80;;;;;4.70;96131.00;;;;8330739;28;20534;-75
2023/12/20 20:02:32;;;;;;;5.63;2.60;;;;;4.70;96132.00;;;;8337024;28;20650;-75
2023/12/20 20:06:35;;;;;;;4.37;2.40;;;;;4.60;96132.00;;;;8337924;28;20229;-76
2023/12/20 20:10:39;;;;;;;7.33;2.47;;;;;4.60;96120.00;;;;8338371;28;20687;-75
2023/12/20 20:14:42;;;;;;;9.07;2.43;;;;;4.50;96113.00;;;;8337834;28;20240;-76
2023/12/20 20:18:47;;;;;;;7.80;2.47;;;;;4.50;96118.00;;;;8337132;28;20243;-76
2023/12/20 20:22:50;;;;;;;8.53;3.03;;;;;4.40;96112.00;;;;8337458;28;20618;-78
2023/12/20 20:26:54;;;;;;;9.87;2.57;;;;;4.40;96098.00;;;;8337785;28;20539;-78
2023/12/20 20:30:57;;;;;;;2.73;1.83;;;;;4.40;96091.00;;;;8337152;28;20244;-77
2023/12/20 20:35:01;;;;;;;6.23;2.07;;;;;4.40;96089.00;;;;8336695;28;20201;-79